sensor_id;sensor_type;location;lat;lon;timestamp;P1;durP1;ratioP1;P2;durP2;ratioP2
10827;SDS011;5467;59.334;13.512;2022-10-16T00:01:53;0.40;;;0.40;;
10827;SDS011;5467;59.334;13.512;2022-10-16T00:04:20;0.30;;;0.30;;
10827;SDS011;5467;59.334;13.512;2022-10-16T00:06:47;0.30;;;0.30;;
10827;SDS011;5467;59.334;13.512;2022-10-16T00:09:14;0.30;;;0.30;;
10827;SDS011;5467;59.334;13.512;2022-10-16T00:11:41;0.30;;;0.30;;
10827;SDS011;5467;59.334;13.512;2022-10-16T00:14:09;0.30;;;0.30;;
10827;SDS011;5467;59.334;13.512;2022-10-16T00:16:38;0.30;;;0.30;;
10827;SDS011;5467;59.334;13.512;2022-10-16T00:19:06;0.30;;;0.30;;
10827;SDS011;5467;59.334;13.512;2022-10-16T00:21:33;0.30;;;0.30;;
10827;SDS011;5467;59.334;13.512;2022-10-16T00:24:02;0.30;;;0.30;;
10827;SDS011;5467;59.334;13.512;2022-10-16T00:26:31;0.30;;;0.30;;
10827;SDS011;5467;59.334;13.512;2022-10-16T00:29:00;0.30;;;0.30;;
10827;SDS011;5467;59.334;13.512;2022-10-16T00:31:27;0.30;;;0.30;;
10827;SDS011;5467;59.334;13.512;2022-10-16T00:33:55;0.30;;;0.30;;
10827;SDS011;5467;59.334;13.512;2022-10-16T00:36:24;0.30;;;0.30;;
10827;SDS011;5467;59.334;13.512;2022-10-16T00:38:52;0.30;;;0.30;;
10827;SDS011;5467;59.334;13.512;2022-10-16T00:41:21;0.30;;;0.30;;
10827;SDS011;5467;59.334;13.512;2022-10-16T00:43:49;0.40;;;0.40;;
10827;SDS011;5467;59.334;13.512;2022-10-16T00:46:19;0.30;;;0.30;;
10827;SDS011;5467;59.334;13.512;2022-10-16T00:48:48;0.40;;;0.40;;
10827;SDS011;5467;59.334;13.512;2022-10-16T00:51:18;0.30;;;0.30;;
10827;SDS011;5467;59.334;13.512;2022-10-16T00:53:50;0.40;;;0.40;;
10827;SDS011;5467;59.334;13.512;2022-10-16T00:56:18;0.40;;;0.40;;
10827;SDS011;5467;59.334;13.512;2022-10-16T00:58:45;0.40;;;0.40;;
10827;SDS011;5467;59.334;13.512;2022-10-16T01:01:12;0.33;;;0.33;;
10827;SDS011;5467;59.334;13.512;2022-10-16T01:03:40;0.30;;;0.30;;
10827;SDS011;5467;59.334;13.512;2022-10-16T01:06:09;0.30;;;0.30;;
10827;SDS011;5467;59.334;13.512;2022-10-16T01:08:47;0.40;;;0.40;;
10827;SDS011;5467;59.334;13.512;2022-10-16T01:11:27;0.30;;;0.30;;
10827;SDS011;5467;59.334;13.512;2022-10-16T01:14:01;0.40;;;0.40;;
10827;SDS011;5467;59.334;13.512;2022-10-16T01:16:35;0.30;;;0.30;;
10827;SDS011;5467;59.334;13.512;2022-10-16T01:19:08;0.30;;;0.30;;
10827;SDS011;5467;59.334;13.512;2022-10-16T01:21:40;0.40;;;0.40;;
10827;SDS011;5467;59.334;13.512;2022-10-16T01:24:17;0.30;;;0.30;;
10827;SDS011;5467;59.334;13.512;2022-10-16T01:27:03;0.40;;;0.40;;
10827;SDS011;5467;59.334;13.512;2022-10-16T01:29:40;0.30;;;0.30;;
10827;SDS011;5467;59.334;13.512;2022-10-16T01:32:15;0.40;;;0.40;;
10827;SDS011;5467;59.334;13.512;2022-10-16T01:34:47;0.40;;;0.40;;
10827;SDS011;5467;59.334;13.512;2022-10-16T01:37:20;0.40;;;0.40;;
10827;SDS011;5467;59.334;13.512;2022-10-16T01:39:53;0.47;;;0.47;;
10827;SDS011;5467;59.334;13.512;2022-10-16T01:42:27;0.30;;;0.30;;
10827;SDS011;5467;59.334;13.512;2022-10-16T01:44:59;0.40;;;0.40;;
10827;SDS011;5467;59.334;13.512;2022-10-16T01:47:28;0.50;;;0.50;;
10827;SDS011;5467;59.334;13.512;2022-10-16T01:49:57;0.40;;;0.40;;
10827;SDS011;5467;59.334;13.512;2022-10-16T01:52:26;0.37;;;0.37;;
10827;SDS011;5467;59.334;13.512;2022-10-16T01:54:55;0.50;;;0.50;;
10827;SDS011;5467;59.334;13.512;2022-10-16T01:57:24;0.70;;;0.70;;
10827;SDS011;5467;59.334;13.512;2022-10-16T01:59:54;0.50;;;0.50;;
10827;SDS011;5467;59.334;13.512;2022-10-16T02:02:25;0.50;;;0.50;;
10827;SDS011;5467;59.334;13.512;2022-10-16T02:04:55;0.50;;;0.50;;
10827;SDS011;5467;59.334;13.512;2022-10-16T02:07:25;0.40;;;0.40;;
10827;SDS011;5467;59.334;13.512;2022-10-16T02:09:53;0.40;;;0.40;;
10827;SDS011;5467;59.334;13.512;2022-10-16T02:12:23;0.50;;;0.50;;
10827;SDS011;5467;59.334;13.512;2022-10-16T02:14:54;0.50;;;0.50;;
10827;SDS011;5467;59.334;13.512;2022-10-16T02:17:21;0.70;;;0.70;;
10827;SDS011;5467;59.334;13.512;2022-10-16T02:19:49;0.50;;;0.50;;
10827;SDS011;5467;59.334;13.512;2022-10-16T02:22:21;0.53;;;0.53;;
10827;SDS011;5467;59.334;13.512;2022-10-16T02:24:54;0.53;;;0.53;;
10827;SDS011;5467;59.334;13.512;2022-10-16T02:27:25;0.60;;;0.60;;
10827;SDS011;5467;59.334;13.512;2022-10-16T02:29:59;0.50;;;0.50;;
10827;SDS011;5467;59.334;13.512;2022-10-16T02:32:33;0.60;;;0.60;;
10827;SDS011;5467;59.334;13.512;2022-10-16T02:35:02;0.60;;;0.60;;
10827;SDS011;5467;59.334;13.512;2022-10-16T02:37:31;0.60;;;0.60;;
10827;SDS011;5467;59.334;13.512;2022-10-16T02:39:59;0.60;;;0.60;;
10827;SDS011;5467;59.334;13.512;2022-10-16T02:42:29;0.80;;;0.80;;
10827;SDS011;5467;59.334;13.512;2022-10-16T02:44:59;0.60;;;0.60;;
10827;SDS011;5467;59.334;13.512;2022-10-16T02:47:25;0.60;;;0.60;;
10827;SDS011;5467;59.334;13.512;2022-10-16T02:49:53;0.60;;;0.60;;
10827;SDS011;5467;59.334;13.512;2022-10-16T02:52:20;0.70;;;0.70;;
10827;SDS011;5467;59.334;13.512;2022-10-16T02:54:47;0.60;;;0.60;;
10827;SDS011;5467;59.334;13.512;2022-10-16T02:57:14;0.60;;;0.60;;
10827;SDS011;5467;59.334;13.512;2022-10-16T02:59:42;0.50;;;0.50;;
10827;SDS011;5467;59.334;13.512;2022-10-16T03:02:09;0.93;;;0.77;;
10827;SDS011;5467;59.334;13.512;2022-10-16T03:04:37;0.60;;;0.60;;
10827;SDS011;5467;59.334;13.512;2022-10-16T03:07:04;0.60;;;0.60;;
10827;SDS011;5467;59.334;13.512;2022-10-16T03:09:31;0.50;;;0.50;;
10827;SDS011;5467;59.334;13.512;2022-10-16T03:11:58;0.50;;;0.50;;
10827;SDS011;5467;59.334;13.512;2022-10-16T03:14:25;0.60;;;0.60;;
10827;SDS011;5467;59.334;13.512;2022-10-16T03:16:54;0.60;;;0.60;;
10827;SDS011;5467;59.334;13.512;2022-10-16T03:19:21;0.67;;;0.67;;
10827;SDS011;5467;59.334;13.512;2022-10-16T03:21:47;0.70;;;0.70;;
10827;SDS011;5467;59.334;13.512;2022-10-16T03:24:15;0.70;;;0.70;;
10827;SDS011;5467;59.334;13.512;2022-10-16T03:26:42;0.70;;;0.70;;
10827;SDS011;5467;59.334;13.512;2022-10-16T03:29:09;0.53;;;0.53;;
10827;SDS011;5467;59.334;13.512;2022-10-16T03:31:36;0.67;;;0.67;;
10827;SDS011;5467;59.334;13.512;2022-10-16T03:34:04;0.63;;;0.63;;
10827;SDS011;5467;59.334;13.512;2022-10-16T03:36:32;0.70;;;0.70;;
10827;SDS011;5467;59.334;13.512;2022-10-16T03:38:58;0.60;;;0.60;;
10827;SDS011;5467;59.334;13.512;2022-10-16T03:41:25;0.63;;;0.63;;
10827;SDS011;5467;59.334;13.512;2022-10-16T03:43:52;0.77;;;0.77;;
10827;SDS011;5467;59.334;13.512;2022-10-16T03:46:19;0.63;;;0.63;;
10827;SDS011;5467;59.334;13.512;2022-10-16T03:48:46;0.70;;;0.70;;
10827;SDS011;5467;59.334;13.512;2022-10-16T03:51:14;0.70;;;0.70;;
10827;SDS011;5467;59.334;13.512;2022-10-16T03:53:41;0.60;;;0.60;;
10827;SDS011;5467;59.334;13.512;2022-10-16T03:56:08;0.70;;;0.70;;
10827;SDS011;5467;59.334;13.512;2022-10-16T03:58:35;0.80;;;0.80;;
10827;SDS011;5467;59.334;13.512;2022-10-16T04:01:02;0.70;;;0.70;;
10827;SDS011;5467;59.334;13.512;2022-10-16T04:03:29;0.73;;;0.73;;
10827;SDS011;5467;59.334;13.512;2022-10-16T04:05:56;0.80;;;0.80;;
10827;SDS011;5467;59.334;13.512;2022-10-16T04:08:25;0.77;;;0.77;;
10827;SDS011;5467;59.334;13.512;2022-10-16T04:10:52;0.80;;;0.80;;
10827;SDS011;5467;59.334;13.512;2022-10-16T04:13:19;0.90;;;0.90;;
10827;SDS011;5467;59.334;13.512;2022-10-16T04:15:46;0.70;;;0.70;;
10827;SDS011;5467;59.334;13.512;2022-10-16T04:18:13;0.80;;;0.80;;
10827;SDS011;5467;59.334;13.512;2022-10-16T04:20:40;0.77;;;0.77;;
10827;SDS011;5467;59.334;13.512;2022-10-16T04:23:07;0.77;;;0.77;;
10827;SDS011;5467;59.334;13.512;2022-10-16T04:25:35;0.80;;;0.80;;
10827;SDS011;5467;59.334;13.512;2022-10-16T04:28:02;0.70;;;0.70;;
10827;SDS011;5467;59.334;13.512;2022-10-16T04:30:30;0.70;;;0.70;;
10827;SDS011;5467;59.334;13.512;2022-10-16T04:32:58;0.90;;;0.90;;
10827;SDS011;5467;59.334;13.512;2022-10-16T04:35:25;0.73;;;0.73;;
10827;SDS011;5467;59.334;13.512;2022-10-16T04:37:52;0.70;;;0.70;;
10827;SDS011;5467;59.334;13.512;2022-10-16T04:40:19;0.73;;;0.73;;
10827;SDS011;5467;59.334;13.512;2022-10-16T04:42:47;0.70;;;0.70;;
10827;SDS011;5467;59.334;13.512;2022-10-16T04:45:15;0.70;;;0.70;;
10827;SDS011;5467;59.334;13.512;2022-10-16T04:47:41;0.90;;;0.90;;
10827;SDS011;5467;59.334;13.512;2022-10-16T04:50:09;0.70;;;0.70;;
10827;SDS011;5467;59.334;13.512;2022-10-16T04:52:36;0.80;;;0.80;;
10827;SDS011;5467;59.334;13.512;2022-10-16T04:55:03;0.60;;;0.60;;
10827;SDS011;5467;59.334;13.512;2022-10-16T04:57:30;0.80;;;0.80;;
10827;SDS011;5467;59.334;13.512;2022-10-16T04:59:59;0.70;;;0.70;;
10827;SDS011;5467;59.334;13.512;2022-10-16T05:02:28;0.70;;;0.70;;
10827;SDS011;5467;59.334;13.512;2022-10-16T05:04:55;0.70;;;0.70;;
10827;SDS011;5467;59.334;13.512;2022-10-16T05:07:22;0.90;;;0.90;;
10827;SDS011;5467;59.334;13.512;2022-10-16T05:09:49;0.93;;;0.93;;
10827;SDS011;5467;59.334;13.512;2022-10-16T05:12:16;0.60;;;0.60;;
10827;SDS011;5467;59.334;13.512;2022-10-16T05:14:43;0.70;;;0.70;;
10827;SDS011;5467;59.334;13.512;2022-10-16T05:17:11;0.70;;;0.70;;
10827;SDS011;5467;59.334;13.512;2022-10-16T05:19:38;0.80;;;0.80;;
10827;SDS011;5467;59.334;13.512;2022-10-16T05:22:05;0.77;;;0.77;;
10827;SDS011;5467;59.334;13.512;2022-10-16T05:24:32;0.77;;;0.77;;
10827;SDS011;5467;59.334;13.512;2022-10-16T05:26:59;1.00;;;1.00;;
10827;SDS011;5467;59.334;13.512;2022-10-16T05:29:26;0.90;;;0.90;;
10827;SDS011;5467;59.334;13.512;2022-10-16T05:31:53;0.80;;;0.80;;
10827;SDS011;5467;59.334;13.512;2022-10-16T05:34:22;0.70;;;0.70;;
10827;SDS011;5467;59.334;13.512;2022-10-16T05:36:49;0.80;;;0.80;;
10827;SDS011;5467;59.334;13.512;2022-10-16T05:39:16;0.70;;;0.70;;
10827;SDS011;5467;59.334;13.512;2022-10-16T05:41:44;1.00;;;1.00;;
10827;SDS011;5467;59.334;13.512;2022-10-16T05:44:11;0.80;;;0.80;;
10827;SDS011;5467;59.334;13.512;2022-10-16T05:46:38;0.80;;;0.80;;
10827;SDS011;5467;59.334;13.512;2022-10-16T05:49:05;1.00;;;1.00;;
10827;SDS011;5467;59.334;13.512;2022-10-16T05:51:33;0.80;;;0.80;;
10827;SDS011;5467;59.334;13.512;2022-10-16T05:54:00;0.90;;;0.90;;
10827;SDS011;5467;59.334;13.512;2022-10-16T05:56:27;1.43;;;1.10;;
10827;SDS011;5467;59.334;13.512;2022-10-16T05:58:54;0.87;;;0.87;;
10827;SDS011;5467;59.334;13.512;2022-10-16T06:01:21;0.70;;;0.70;;
10827;SDS011;5467;59.334;13.512;2022-10-16T06:03:50;0.80;;;0.80;;
10827;SDS011;5467;59.334;13.512;2022-10-16T06:06:18;0.93;;;0.93;;
10827;SDS011;5467;59.334;13.512;2022-10-16T06:08:47;0.83;;;0.83;;
10827;SDS011;5467;59.334;13.512;2022-10-16T06:11:16;0.80;;;0.80;;
10827;SDS011;5467;59.334;13.512;2022-10-16T06:13:44;0.80;;;0.80;;
10827;SDS011;5467;59.334;13.512;2022-10-16T06:16:11;0.80;;;0.80;;
10827;SDS011;5467;59.334;13.512;2022-10-16T06:18:39;0.87;;;0.87;;
10827;SDS011;5467;59.334;13.512;2022-10-16T06:21:07;0.80;;;0.80;;
10827;SDS011;5467;59.334;13.512;2022-10-16T06:23:35;1.03;;;1.03;;
10827;SDS011;5467;59.334;13.512;2022-10-16T06:26:07;0.97;;;0.97;;
10827;SDS011;5467;59.334;13.512;2022-10-16T06:28:35;1.00;;;1.00;;
10827;SDS011;5467;59.334;13.512;2022-10-16T06:31:03;0.80;;;0.80;;
10827;SDS011;5467;59.334;13.512;2022-10-16T06:33:32;0.83;;;0.83;;
10827;SDS011;5467;59.334;13.512;2022-10-16T06:36:02;0.77;;;0.77;;
10827;SDS011;5467;59.334;13.512;2022-10-16T06:38:30;0.60;;;0.60;;
10827;SDS011;5467;59.334;13.512;2022-10-16T06:40:58;0.90;;;0.90;;
10827;SDS011;5467;59.334;13.512;2022-10-16T06:43:28;0.90;;;0.90;;
10827;SDS011;5467;59.334;13.512;2022-10-16T06:45:57;0.70;;;0.70;;
10827;SDS011;5467;59.334;13.512;2022-10-16T06:48:26;0.73;;;0.73;;
10827;SDS011;5467;59.334;13.512;2022-10-16T06:50:57;1.10;;;1.10;;
10827;SDS011;5467;59.334;13.512;2022-10-16T06:53:25;0.80;;;0.80;;
10827;SDS011;5467;59.334;13.512;2022-10-16T06:55:53;0.90;;;0.90;;
10827;SDS011;5467;59.334;13.512;2022-10-16T06:58:20;0.80;;;0.80;;
10827;SDS011;5467;59.334;13.512;2022-10-16T07:00:49;0.90;;;0.90;;
10827;SDS011;5467;59.334;13.512;2022-10-16T07:03:20;1.00;;;1.00;;
10827;SDS011;5467;59.334;13.512;2022-10-16T07:05:47;1.23;;;1.20;;
10827;SDS011;5467;59.334;13.512;2022-10-16T07:08:15;1.00;;;1.00;;
10827;SDS011;5467;59.334;13.512;2022-10-16T07:10:41;0.90;;;0.90;;
10827;SDS011;5467;59.334;13.512;2022-10-16T07:13:08;0.93;;;0.93;;
10827;SDS011;5467;59.334;13.512;2022-10-16T07:15:38;0.90;;;0.90;;
10827;SDS011;5467;59.334;13.512;2022-10-16T07:18:06;1.00;;;1.00;;
10827;SDS011;5467;59.334;13.512;2022-10-16T07:20:33;0.83;;;0.83;;
10827;SDS011;5467;59.334;13.512;2022-10-16T07:23:00;0.80;;;0.80;;
10827;SDS011;5467;59.334;13.512;2022-10-16T07:25:27;0.70;;;0.70;;
10827;SDS011;5467;59.334;13.512;2022-10-16T07:27:54;0.97;;;0.97;;
10827;SDS011;5467;59.334;13.512;2022-10-16T07:30:21;0.90;;;0.90;;
10827;SDS011;5467;59.334;13.512;2022-10-16T07:32:49;0.80;;;0.80;;
10827;SDS011;5467;59.334;13.512;2022-10-16T07:35:17;0.70;;;0.70;;
10827;SDS011;5467;59.334;13.512;2022-10-16T07:37:44;0.90;;;0.90;;
10827;SDS011;5467;59.334;13.512;2022-10-16T07:40:11;0.80;;;0.80;;
10827;SDS011;5467;59.334;13.512;2022-10-16T07:42:39;0.80;;;0.80;;
10827;SDS011;5467;59.334;13.512;2022-10-16T07:45:06;1.00;;;1.00;;
10827;SDS011;5467;59.334;13.512;2022-10-16T07:47:34;0.80;;;0.80;;
10827;SDS011;5467;59.334;13.512;2022-10-16T07:50:01;0.77;;;0.77;;
10827;SDS011;5467;59.334;13.512;2022-10-16T07:52:29;0.80;;;0.80;;
10827;SDS011;5467;59.334;13.512;2022-10-16T07:54:56;0.77;;;0.77;;
10827;SDS011;5467;59.334;13.512;2022-10-16T07:57:23;0.80;;;0.80;;
10827;SDS011;5467;59.334;13.512;2022-10-16T07:59:50;0.80;;;0.80;;
10827;SDS011;5467;59.334;13.512;2022-10-16T08:02:17;1.00;;;1.00;;
10827;SDS011;5467;59.334;13.512;2022-10-16T08:04:46;0.77;;;0.77;;
10827;SDS011;5467;59.334;13.512;2022-10-16T08:07:13;0.60;;;0.60;;
10827;SDS011;5467;59.334;13.512;2022-10-16T08:09:41;0.87;;;0.87;;
10827;SDS011;5467;59.334;13.512;2022-10-16T08:12:08;0.90;;;0.90;;
10827;SDS011;5467;59.334;13.512;2022-10-16T08:14:35;0.80;;;0.80;;
10827;SDS011;5467;59.334;13.512;2022-10-16T08:17:02;0.80;;;0.80;;
10827;SDS011;5467;59.334;13.512;2022-10-16T08:19:29;0.70;;;0.70;;
10827;SDS011;5467;59.334;13.512;2022-10-16T08:21:59;1.10;;;1.10;;
10827;SDS011;5467;59.334;13.512;2022-10-16T08:24:26;0.90;;;0.90;;
10827;SDS011;5467;59.334;13.512;2022-10-16T08:26:57;0.93;;;0.93;;
10827;SDS011;5467;59.334;13.512;2022-10-16T08:29:24;0.70;;;0.70;;
10827;SDS011;5467;59.334;13.512;2022-10-16T08:31:51;0.80;;;0.80;;
10827;SDS011;5467;59.334;13.512;2022-10-16T08:34:18;0.80;;;0.80;;
10827;SDS011;5467;59.334;13.512;2022-10-16T08:36:45;0.80;;;0.80;;
10827;SDS011;5467;59.334;13.512;2022-10-16T08:39:12;0.80;;;0.80;;
10827;SDS011;5467;59.334;13.512;2022-10-16T08:44:41;0.70;;;0.70;;
10827;SDS011;5467;59.334;13.512;2022-10-16T08:47:21;0.70;;;0.70;;
10827;SDS011;5467;59.334;13.512;2022-10-16T08:49:55;0.67;;;0.67;;
10827;SDS011;5467;59.334;13.512;2022-10-16T08:52:25;0.70;;;0.70;;
10827;SDS011;5467;59.334;13.512;2022-10-16T08:54:56;0.80;;;0.80;;
10827;SDS011;5467;59.334;13.512;2022-10-16T08:57:25;0.60;;;0.60;;
10827;SDS011;5467;59.334;13.512;2022-10-16T08:59:53;0.60;;;0.60;;
10827;SDS011;5467;59.334;13.512;2022-10-16T09:02:30;0.80;;;0.80;;
10827;SDS011;5467;59.334;13.512;2022-10-16T09:05:10;0.80;;;0.80;;
10827;SDS011;5467;59.334;13.512;2022-10-16T09:07:54;0.60;;;0.60;;
10827;SDS011;5467;59.334;13.512;2022-10-16T09:10:31;0.60;;;0.60;;
10827;SDS011;5467;59.334;13.512;2022-10-16T09:13:11;0.70;;;0.70;;
10827;SDS011;5467;59.334;13.512;2022-10-16T09:15:44;0.80;;;0.80;;
10827;SDS011;5467;59.334;13.512;2022-10-16T09:18:19;0.70;;;0.70;;
10827;SDS011;5467;59.334;13.512;2022-10-16T09:20:53;0.80;;;0.80;;
10827;SDS011;5467;59.334;13.512;2022-10-16T09:23:25;0.70;;;0.70;;
10827;SDS011;5467;59.334;13.512;2022-10-16T09:25:54;0.80;;;0.80;;
10827;SDS011;5467;59.334;13.512;2022-10-16T09:28:24;0.67;;;0.67;;
10827;SDS011;5467;59.334;13.512;2022-10-16T09:30:51;0.67;;;0.67;;
10827;SDS011;5467;59.334;13.512;2022-10-16T09:33:20;0.80;;;0.80;;
10827;SDS011;5467;59.334;13.512;2022-10-16T09:35:50;1.00;;;1.00;;
10827;SDS011;5467;59.334;13.512;2022-10-16T09:38:23;0.80;;;0.80;;
10827;SDS011;5467;59.334;13.512;2022-10-16T09:40:53;0.70;;;0.70;;
10827;SDS011;5467;59.334;13.512;2022-10-16T09:43:22;0.70;;;0.70;;
10827;SDS011;5467;59.334;13.512;2022-10-16T09:45:56;0.70;;;0.70;;
10827;SDS011;5467;59.334;13.512;2022-10-16T09:48:25;0.83;;;0.83;;
10827;SDS011;5467;59.334;13.512;2022-10-16T09:50:56;0.80;;;0.70;;
10827;SDS011;5467;59.334;13.512;2022-10-16T09:53:38;0.70;;;0.70;;
10827;SDS011;5467;59.334;13.512;2022-10-16T09:56:09;0.80;;;0.80;;
10827;SDS011;5467;59.334;13.512;2022-10-16T09:58:42;0.83;;;0.83;;
10827;SDS011;5467;59.334;13.512;2022-10-16T10:01:15;0.73;;;0.73;;
10827;SDS011;5467;59.334;13.512;2022-10-16T10:03:42;0.80;;;0.80;;
10827;SDS011;5467;59.334;13.512;2022-10-16T10:06:16;0.80;;;0.80;;
10827;SDS011;5467;59.334;13.512;2022-10-16T10:11:44;0.70;;;0.70;;
10827;SDS011;5467;59.334;13.512;2022-10-16T10:14:19;0.90;;;0.90;;
10827;SDS011;5467;59.334;13.512;2022-10-16T10:16:49;0.70;;;0.70;;
10827;SDS011;5467;59.334;13.512;2022-10-16T10:19:18;0.80;;;0.80;;
10827;SDS011;5467;59.334;13.512;2022-10-16T10:21:46;0.80;;;0.80;;
10827;SDS011;5467;59.334;13.512;2022-10-16T10:24:14;0.80;;;0.80;;
10827;SDS011;5467;59.334;13.512;2022-10-16T10:26:47;0.87;;;0.87;;
10827;SDS011;5467;59.334;13.512;2022-10-16T10:29:27;0.70;;;0.70;;
10827;SDS011;5467;59.334;13.512;2022-10-16T10:32:07;0.67;;;0.67;;
10827;SDS011;5467;59.334;13.512;2022-10-16T10:34:46;0.87;;;0.87;;
10827;SDS011;5467;59.334;13.512;2022-10-16T10:37:35;0.73;;;0.73;;
10827;SDS011;5467;59.334;13.512;2022-10-16T10:40:13;0.70;;;0.70;;
10827;SDS011;5467;59.334;13.512;2022-10-16T10:42:49;0.70;;;0.70;;
10827;SDS011;5467;59.334;13.512;2022-10-16T10:45:25;0.80;;;0.80;;
10827;SDS011;5467;59.334;13.512;2022-10-16T10:47:59;0.70;;;0.70;;
10827;SDS011;5467;59.334;13.512;2022-10-16T10:50:39;0.90;;;0.90;;
10827;SDS011;5467;59.334;13.512;2022-10-16T10:53:16;0.60;;;0.60;;
10827;SDS011;5467;59.334;13.512;2022-10-16T10:55:52;0.60;;;0.60;;
10827;SDS011;5467;59.334;13.512;2022-10-16T10:58:29;0.80;;;0.80;;
10827;SDS011;5467;59.334;13.512;2022-10-16T11:01:10;0.60;;;0.60;;
10827;SDS011;5467;59.334;13.512;2022-10-16T11:03:42;0.77;;;0.77;;
10827;SDS011;5467;59.334;13.512;2022-10-16T11:06:23;0.60;;;0.60;;
10827;SDS011;5467;59.334;13.512;2022-10-16T11:08:55;0.70;;;0.70;;
10827;SDS011;5467;59.334;13.512;2022-10-16T11:11:29;0.60;;;0.60;;
10827;SDS011;5467;59.334;13.512;2022-10-16T11:14:02;0.83;;;0.83;;
10827;SDS011;5467;59.334;13.512;2022-10-16T11:16:35;0.70;;;0.70;;
10827;SDS011;5467;59.334;13.512;2022-10-16T11:19:10;0.50;;;0.50;;
10827;SDS011;5467;59.334;13.512;2022-10-16T11:21:42;0.70;;;0.70;;
10827;SDS011;5467;59.334;13.512;2022-10-16T11:24:16;0.57;;;0.57;;
10827;SDS011;5467;59.334;13.512;2022-10-16T11:26:46;0.70;;;0.70;;
10827;SDS011;5467;59.334;13.512;2022-10-16T11:29:20;0.80;;;0.80;;
10827;SDS011;5467;59.334;13.512;2022-10-16T11:31:55;0.60;;;0.60;;
10827;SDS011;5467;59.334;13.512;2022-10-16T11:34:28;0.60;;;0.60;;
10827;SDS011;5467;59.334;13.512;2022-10-16T11:37:01;0.70;;;0.70;;
10827;SDS011;5467;59.334;13.512;2022-10-16T11:39:31;0.63;;;0.63;;
10827;SDS011;5467;59.334;13.512;2022-10-16T11:42:00;0.60;;;0.60;;
10827;SDS011;5467;59.334;13.512;2022-10-16T11:44:38;0.70;;;0.70;;
10827;SDS011;5467;59.334;13.512;2022-10-16T11:47:23;0.80;;;0.80;;
10827;SDS011;5467;59.334;13.512;2022-10-16T11:49:56;0.70;;;0.70;;
10827;SDS011;5467;59.334;13.512;2022-10-16T11:52:27;0.50;;;0.50;;
10827;SDS011;5467;59.334;13.512;2022-10-16T11:54:59;0.60;;;0.60;;
10827;SDS011;5467;59.334;13.512;2022-10-16T11:57:35;0.40;;;0.40;;
10827;SDS011;5467;59.334;13.512;2022-10-16T12:00:08;0.60;;;0.60;;
10827;SDS011;5467;59.334;13.512;2022-10-16T12:02:50;0.40;;;0.40;;
10827;SDS011;5467;59.334;13.512;2022-10-16T12:05:25;0.40;;;0.40;;
10827;SDS011;5467;59.334;13.512;2022-10-16T12:08:02;0.50;;;0.50;;
10827;SDS011;5467;59.334;13.512;2022-10-16T12:10:36;0.47;;;0.47;;
10827;SDS011;5467;59.334;13.512;2022-10-16T12:13:04;0.40;;;0.40;;
10827;SDS011;5467;59.334;13.512;2022-10-16T12:15:51;0.53;;;0.53;;
10827;SDS011;5467;59.334;13.512;2022-10-16T12:18:31;0.60;;;0.60;;
10827;SDS011;5467;59.334;13.512;2022-10-16T12:20:59;0.50;;;0.50;;
10827;SDS011;5467;59.334;13.512;2022-10-16T12:23:30;0.30;;;0.30;;
10827;SDS011;5467;59.334;13.512;2022-10-16T12:25:59;0.40;;;0.40;;
10827;SDS011;5467;59.334;13.512;2022-10-16T12:28:28;0.40;;;0.40;;
10827;SDS011;5467;59.334;13.512;2022-10-16T12:30:58;0.40;;;0.40;;
10827;SDS011;5467;59.334;13.512;2022-10-16T12:33:27;0.40;;;0.40;;
10827;SDS011;5467;59.334;13.512;2022-10-16T12:35:57;0.40;;;0.40;;
10827;SDS011;5467;59.334;13.512;2022-10-16T12:38:27;0.37;;;0.37;;
10827;SDS011;5467;59.334;13.512;2022-10-16T12:40:58;0.50;;;0.50;;
10827;SDS011;5467;59.334;13.512;2022-10-16T12:43:34;0.40;;;0.40;;
10827;SDS011;5467;59.334;13.512;2022-10-16T12:46:05;0.40;;;0.40;;
10827;SDS011;5467;59.334;13.512;2022-10-16T12:48:47;0.40;;;0.40;;
10827;SDS011;5467;59.334;13.512;2022-10-16T12:51:24;0.50;;;0.50;;
10827;SDS011;5467;59.334;13.512;2022-10-16T12:54:00;0.40;;;0.40;;
10827;SDS011;5467;59.334;13.512;2022-10-16T12:56:30;0.40;;;0.40;;
10827;SDS011;5467;59.334;13.512;2022-10-16T12:59:09;0.40;;;0.40;;
10827;SDS011;5467;59.334;13.512;2022-10-16T13:01:51;0.47;;;0.47;;
10827;SDS011;5467;59.334;13.512;2022-10-16T13:04:41;0.40;;;0.40;;
10827;SDS011;5467;59.334;13.512;2022-10-16T13:07:26;0.40;;;0.40;;
10827;SDS011;5467;59.334;13.512;2022-10-16T13:10:08;0.40;;;0.40;;
10827;SDS011;5467;59.334;13.512;2022-10-16T13:12:52;0.37;;;0.37;;
10827;SDS011;5467;59.334;13.512;2022-10-16T13:15:38;0.40;;;0.40;;
10827;SDS011;5467;59.334;13.512;2022-10-16T13:18:14;0.30;;;0.30;;
10827;SDS011;5467;59.334;13.512;2022-10-16T13:20:55;0.37;;;0.37;;
10827;SDS011;5467;59.334;13.512;2022-10-16T13:23:33;0.37;;;0.37;;
10827;SDS011;5467;59.334;13.512;2022-10-16T13:26:09;0.50;;;0.50;;
10827;SDS011;5467;59.334;13.512;2022-10-16T13:28:43;0.40;;;0.40;;
10827;SDS011;5467;59.334;13.512;2022-10-16T13:31:13;0.50;;;0.50;;
10827;SDS011;5467;59.334;13.512;2022-10-16T13:33:45;0.40;;;0.40;;
10827;SDS011;5467;59.334;13.512;2022-10-16T13:36:19;0.47;;;0.47;;
10827;SDS011;5467;59.334;13.512;2022-10-16T13:38:50;0.40;;;0.40;;
10827;SDS011;5467;59.334;13.512;2022-10-16T13:41:32;0.40;;;0.40;;
10827;SDS011;5467;59.334;13.512;2022-10-16T13:43:59;0.40;;;0.40;;
10827;SDS011;5467;59.334;13.512;2022-10-16T13:46:26;0.50;;;0.50;;
10827;SDS011;5467;59.334;13.512;2022-10-16T13:48:58;0.50;;;0.50;;
10827;SDS011;5467;59.334;13.512;2022-10-16T13:51:26;0.40;;;0.40;;
10827;SDS011;5467;59.334;13.512;2022-10-16T13:53:56;0.43;;;0.40;;
10827;SDS011;5467;59.334;13.512;2022-10-16T13:56:24;0.47;;;0.47;;
10827;SDS011;5467;59.334;13.512;2022-10-16T13:59:00;0.40;;;0.40;;
10827;SDS011;5467;59.334;13.512;2022-10-16T14:01:29;0.40;;;0.40;;
10827;SDS011;5467;59.334;13.512;2022-10-16T14:04:01;0.43;;;0.43;;
10827;SDS011;5467;59.334;13.512;2022-10-16T14:06:30;0.40;;;0.40;;
10827;SDS011;5467;59.334;13.512;2022-10-16T14:09:00;0.43;;;0.43;;
10827;SDS011;5467;59.334;13.512;2022-10-16T14:11:34;0.40;;;0.40;;
10827;SDS011;5467;59.334;13.512;2022-10-16T14:14:10;0.40;;;0.40;;
10827;SDS011;5467;59.334;13.512;2022-10-16T14:16:38;0.43;;;0.43;;
10827;SDS011;5467;59.334;13.512;2022-10-16T14:19:13;0.40;;;0.40;;
10827;SDS011;5467;59.334;13.512;2022-10-16T14:21:44;0.40;;;0.40;;
10827;SDS011;5467;59.334;13.512;2022-10-16T14:24:13;0.40;;;0.40;;
10827;SDS011;5467;59.334;13.512;2022-10-16T14:26:49;0.40;;;0.40;;
10827;SDS011;5467;59.334;13.512;2022-10-16T14:29:18;0.40;;;0.40;;
10827;SDS011;5467;59.334;13.512;2022-10-16T14:31:53;0.47;;;0.47;;
10827;SDS011;5467;59.334;13.512;2022-10-16T14:34:22;0.47;;;0.47;;
10827;SDS011;5467;59.334;13.512;2022-10-16T14:36:52;0.43;;;0.43;;
10827;SDS011;5467;59.334;13.512;2022-10-16T14:39:21;0.50;;;0.50;;
10827;SDS011;5467;59.334;13.512;2022-10-16T14:41:51;0.50;;;0.50;;
10827;SDS011;5467;59.334;13.512;2022-10-16T14:44:22;0.40;;;0.40;;
10827;SDS011;5467;59.334;13.512;2022-10-16T14:46:54;0.40;;;0.40;;
10827;SDS011;5467;59.334;13.512;2022-10-16T14:49:21;0.50;;;0.50;;
10827;SDS011;5467;59.334;13.512;2022-10-16T14:51:49;0.50;;;0.50;;
10827;SDS011;5467;59.334;13.512;2022-10-16T14:54:17;0.40;;;0.40;;
10827;SDS011;5467;59.334;13.512;2022-10-16T14:56:47;0.40;;;0.40;;
10827;SDS011;5467;59.334;13.512;2022-10-16T14:59:18;0.40;;;0.40;;
10827;SDS011;5467;59.334;13.512;2022-10-16T15:01:48;0.50;;;0.50;;
10827;SDS011;5467;59.334;13.512;2022-10-16T15:04:15;0.37;;;0.37;;
10827;SDS011;5467;59.334;13.512;2022-10-16T15:06:43;0.40;;;0.40;;
10827;SDS011;5467;59.334;13.512;2022-10-16T15:09:10;0.50;;;0.50;;
10827;SDS011;5467;59.334;13.512;2022-10-16T15:11:37;0.40;;;0.40;;
10827;SDS011;5467;59.334;13.512;2022-10-16T15:14:08;0.40;;;0.40;;